createdAt,value
2023-05-06T00:04:57.811Z,100
2023-05-06T00:09:59.143Z,100
2023-05-06T00:15:00.539Z,100
2023-05-06T00:20:01.846Z,100
2023-05-06T00:25:03.204Z,100
2023-05-06T00:30:04.427Z,100
2023-05-06T00:35:05.833Z,100
2023-05-06T00:40:07.413Z,98.40293
2023-05-06T00:45:08.890Z,98.20658
2023-05-06T00:50:10.281Z,98.46077
2023-05-06T00:55:11.697Z,100
2023-05-06T01:00:13.043Z,100
2023-05-06T01:05:14.301Z,100
2023-05-06T01:10:15.856Z,100
2023-05-06T01:15:17.137Z,100
2023-05-06T01:20:18.408Z,100
2023-05-06T01:25:19.706Z,100
2023-05-06T01:30:21.035Z,100
2023-05-06T01:35:22.282Z,100
2023-05-06T01:40:23.542Z,100
2023-05-06T01:45:24.936Z,100
2023-05-06T01:50:26.193Z,100
2023-05-06T01:55:27.524Z,100
2023-05-06T02:00:28.745Z,100
2023-05-06T02:05:29.982Z,100
2023-05-06T02:10:31.227Z,100
2023-05-06T02:15:32.668Z,100
2023-05-06T02:20:34.018Z,100
2023-05-06T02:25:35.433Z,100
2023-05-06T02:30:36.786Z,100
2023-05-06T02:35:38.113Z,100
2023-05-06T02:40:39.484Z,100
2023-05-06T02:45:40.773Z,100
2023-05-06T02:50:42.095Z,100
2023-05-06T02:55:43.695Z,100
2023-05-06T03:00:44.932Z,100
2023-05-06T03:05:46.337Z,100
2023-05-06T03:10:47.796Z,100
2023-05-06T03:15:49.020Z,100
2023-05-06T03:20:50.270Z,100
2023-05-06T03:25:51.952Z,100
2023-05-06T03:30:53.341Z,100
2023-05-06T03:35:54.608Z,100
2023-05-06T03:40:55.879Z,100
2023-05-06T03:45:57.148Z,100
2023-05-06T03:50:58.507Z,100
2023-05-06T03:55:59.807Z,100
2023-05-06T04:01:01.170Z,100
2023-05-06T04:06:02.429Z,100
2023-05-06T04:11:03.804Z,100
2023-05-06T04:16:05.146Z,100
2023-05-06T04:21:06.476Z,100
2023-05-06T04:26:07.751Z,100
2023-05-06T04:31:09.029Z,100
2023-05-06T04:36:10.320Z,100
2023-05-06T04:41:11.914Z,100
2023-05-06T04:46:13.223Z,100
2023-05-06T04:51:14.509Z,100
2023-05-06T04:56:15.809Z,100
2023-05-06T05:01:17.086Z,100
2023-05-06T05:06:18.376Z,100
2023-05-06T05:11:19.784Z,100
2023-05-06T05:16:21.091Z,100
2023-05-06T05:21:22.526Z,100
2023-05-06T05:26:23.810Z,100
2023-05-06T05:31:25.089Z,100
2023-05-06T05:36:26.387Z,100
2023-05-06T05:41:27.708Z,100
2023-05-06T05:46:29.008Z,100
2023-05-06T05:51:30.551Z,100
2023-05-06T05:56:31.986Z,100
2023-05-06T06:01:33.277Z,100
2023-05-06T06:06:34.535Z,98.76224
2023-05-06T06:11:36.101Z,98.95641
2023-05-06T06:16:37.531Z,100
2023-05-06T06:21:38.859Z,100
2023-05-06T06:26:40.178Z,100
2023-05-06T06:31:41.468Z,97.61445
2023-05-06T06:36:42.745Z,93.19606
2023-05-06T06:41:44.100Z,95.0428
2023-05-06T06:46:45.526Z,90.08804
2023-05-06T06:51:46.839Z,87.58996
2023-05-06T06:56:48.266Z,86.81306
2023-05-06T07:01:49.551Z,86.60861
2023-05-06T07:06:50.827Z,88.25171
2023-05-06T07:11:52.129Z,84.6105
2023-05-06T07:16:53.627Z,83.27314
2023-05-06T07:21:55.111Z,80.53421
2023-05-06T07:26:56.402Z,80.09711
2023-05-06T07:31:57.798Z,78.57676
2023-05-06T07:36:59.060Z,80.06478
2023-05-06T07:42:00.331Z,73.15126
2023-05-06T07:47:02.034Z,74.84373
2023-05-06T07:52:03.720Z,72.67636
2023-05-06T07:57:05.061Z,69.19433
2023-05-06T08:02:06.405Z,64.70495
2023-05-06T08:07:07.737Z,61.71787
2023-05-06T08:12:09.038Z,61.11551
2023-05-06T08:17:10.298Z,60.45543
2023-05-06T08:22:11.580Z,61.00331
2023-05-06T08:27:12.848Z,60.99835
2023-05-06T08:32:14.149Z,62.18752
2023-05-06T08:37:15.474Z,61.53086
2023-05-06T08:42:16.807Z,59.54541
2023-05-06T08:47:18.049Z,61.08241
2023-05-06T08:52:19.304Z,58.92206
2023-05-06T08:57:20.597Z,61.26499
2023-05-06T09:02:21.943Z,60.02484
2023-05-06T09:07:23.518Z,59.62702
2023-05-06T09:12:24.926Z,61.17899
2023-05-06T09:17:26.364Z,61.92851
2023-05-06T09:22:27.883Z,62.05063
2023-05-06T09:27:29.206Z,63.51547
2023-05-06T09:32:30.531Z,65.23633
2023-05-06T09:37:31.855Z,70.2142
2023-05-06T09:42:33.143Z,68.48328
2023-05-06T09:47:34.594Z,67.48338
2023-05-06T09:52:35.973Z,65.69695
2023-05-06T09:57:37.500Z,74.34351
2023-05-06T10:02:39.043Z,71.44719
2023-05-06T10:07:40.578Z,71.1504
2023-05-06T10:12:41.868Z,71.95198
2023-05-06T10:17:43.215Z,74.82144
2023-05-06T10:22:44.754Z,75.10742
2023-05-06T10:27:46.048Z,80.74129
2023-05-06T10:32:47.656Z,85.14417
2023-05-06T10:37:48.980Z,86.4399
2023-05-06T10:42:50.270Z,88.40887
2023-05-06T10:47:51.828Z,87.89783
2023-05-06T10:52:53.237Z,83.667
2023-05-06T10:57:54.552Z,88.33618
2023-05-06T11:02:56.244Z,86.01846
2023-05-06T11:07:57.623Z,92.54669
2023-05-06T11:12:58.920Z,91.79271
2023-05-06T11:18:00.282Z,89.87988
2023-05-06T11:23:01.577Z,88.25273
2023-05-06T11:28:02.822Z,87.76625
2023-05-06T11:33:05.531Z,86.20429
2023-05-06T11:38:07.151Z,84.26113
2023-05-06T11:43:08.496Z,83.23599
2023-05-06T11:48:09.784Z,87.42581
2023-05-06T11:53:11.398Z,87.63913
2023-05-06T11:58:13.290Z,84.71906
2023-05-06T12:03:14.694Z,87.22283
2023-05-06T12:08:26.803Z,89.61699
2023-05-06T12:13:29.870Z,87.08015
2023-05-06T12:18:31.489Z,86.85659
2023-05-06T12:23:33.212Z,86.99835
2023-05-06T12:28:35.293Z,85.2579
2023-05-06T12:33:36.963Z,82.56503
2023-05-06T12:38:38.678Z,81.49975
2023-05-06T12:43:40.203Z,78.88523
2023-05-06T12:48:41.524Z,80.13729
2023-05-06T12:53:42.846Z,86.49195
2023-05-06T12:58:44.410Z,88.86616
2023-05-06T13:03:45.864Z,85.44287
2023-05-06T13:08:47.566Z,90.40439
2023-05-06T13:13:49.270Z,86.55234
2023-05-06T13:18:50.987Z,87.92965
2023-05-06T13:23:52.601Z,89.79692
2023-05-06T13:28:54.247Z,93.79481
2023-05-06T13:33:55.920Z,93.40733
2023-05-06T13:38:57.540Z,92.50737
2023-05-06T13:43:59.170Z,90.96969
2023-05-06T13:49:00.852Z,98.40098
2023-05-06T13:54:02.184Z,96.40289
2023-05-06T13:59:03.635Z,98.19911
2023-05-06T14:04:04.983Z,93.29271
2023-05-06T14:09:06.284Z,86.12698
2023-05-06T14:14:07.622Z,87.47535
2023-05-06T14:19:08.968Z,86.61987
2023-05-06T14:24:10.283Z,94.21576
2023-05-06T14:29:11.858Z,94.19516
2023-05-06T14:34:13.152Z,92.85736
2023-05-06T14:39:14.490Z,95.98804
2023-05-06T14:44:15.993Z,99.71782
2023-05-06T14:49:17.609Z,96.70967
2023-05-06T14:54:19.025Z,96.39042
2023-05-06T14:59:20.505Z,99.81748
2023-05-06T15:04:21.918Z,99.28798
2023-05-06T15:09:23.525Z,96.45739
2023-05-06T15:14:25.156Z,97.8102
2023-05-06T15:19:26.784Z,100
2023-05-06T15:24:28.410Z,100
2023-05-06T15:29:29.710Z,100
2023-05-06T15:34:31.077Z,100
2023-05-06T15:39:32.684Z,100
2023-05-06T15:44:34.404Z,100
2023-05-06T15:49:51.412Z,100
2023-05-06T15:54:58.842Z,100
2023-05-06T16:00:01.434Z,100
2023-05-06T16:05:02.656Z,100
2023-05-06T16:10:03.969Z,100
2023-05-06T16:15:05.468Z,100
2023-05-06T16:20:06.836Z,100
2023-05-06T16:25:08.256Z,100
2023-05-06T16:30:09.779Z,100
2023-05-06T16:35:11.520Z,100
2023-05-06T16:40:13.030Z,100
2023-05-06T16:45:14.456Z,100
2023-05-06T16:50:15.850Z,100
2023-05-06T16:55:17.106Z,100
2023-05-06T17:00:18.537Z,100
2023-05-06T17:05:22.012Z,100
2023-05-06T17:10:23.579Z,100
2023-05-06T17:15:24.900Z,100
2023-05-06T17:20:26.177Z,100
2023-05-06T17:25:27.755Z,100
2023-05-06T17:30:29.316Z,100
2023-05-06T17:35:30.597Z,100
2023-05-06T17:40:32.029Z,100
2023-05-06T17:45:33.536Z,100
2023-05-06T17:50:35.102Z,99.41455
2023-05-06T17:55:36.749Z,100
2023-05-06T18:00:38.345Z,100
2023-05-06T18:05:40.031Z,100
2023-05-06T18:10:41.672Z,100
2023-05-06T18:15:43.392Z,100
2023-05-06T18:20:45.138Z,100
2023-05-06T18:25:46.732Z,100
2023-05-06T18:30:48.322Z,100
2023-05-06T18:35:49.875Z,100
2023-05-06T18:40:51.605Z,100
2023-05-06T18:45:53.356Z,100
2023-05-06T18:50:55.217Z,100
2023-05-06T18:55:56.828Z,100
2023-05-06T19:00:58.764Z,100
2023-05-06T19:06:00.378Z,100
2023-05-06T19:11:02.064Z,100
2023-05-06T19:16:03.583Z,100
2023-05-06T19:21:04.870Z,100
2023-05-06T19:26:06.597Z,100
2023-05-06T19:31:08.487Z,100
2023-05-06T19:36:09.788Z,100
2023-05-06T19:41:11.057Z,100
2023-05-06T19:46:12.607Z,100
2023-05-06T19:51:13.947Z,100
2023-05-06T19:56:15.418Z,100
2023-05-06T20:01:17.037Z,100
2023-05-06T20:06:18.324Z,100
2023-05-06T20:11:19.590Z,100
2023-05-06T20:16:21.389Z,100
2023-05-06T20:21:22.675Z,100
2023-05-06T20:26:25.042Z,100
2023-05-06T20:31:26.490Z,100
2023-05-06T20:36:28.816Z,100
2023-05-06T20:41:30.092Z,100
2023-05-06T20:46:31.568Z,100
2023-05-06T20:51:32.914Z,100
2023-05-06T20:56:34.198Z,100
2023-05-06T21:01:35.548Z,100
2023-05-06T21:06:37.007Z,100
2023-05-06T21:11:38.331Z,100
2023-05-06T21:16:39.781Z,100
2023-05-06T21:21:41.252Z,100
2023-05-06T21:26:42.519Z,100
2023-05-06T21:31:43.841Z,100
2023-05-06T21:36:45.125Z,100
2023-05-06T21:41:46.560Z,100
2023-05-06T21:46:48.008Z,100
2023-05-06T21:51:49.408Z,100
2023-05-06T21:56:50.873Z,100
2023-05-06T22:01:52.344Z,100
2023-05-06T22:06:53.744Z,100
2023-05-06T22:11:55.017Z,100
2023-05-06T22:16:56.807Z,100
2023-05-06T22:21:58.118Z,100
2023-05-06T22:26:59.403Z,100
2023-05-06T22:32:00.878Z,100
2023-05-06T22:37:02.406Z,100
2023-05-06T22:42:03.996Z,100
2023-05-06T22:47:05.252Z,100
2023-05-06T22:52:06.480Z,100
2023-05-06T22:57:07.841Z,100
2023-05-06T23:02:09.179Z,100
2023-05-06T23:07:10.475Z,100
2023-05-06T23:12:11.814Z,100
2023-05-06T23:17:13.138Z,100
2023-05-06T23:22:14.514Z,100
2023-05-06T23:27:16.031Z,100
2023-05-06T23:32:17.268Z,100
2023-05-06T23:37:18.566Z,100
2023-05-06T23:42:19.894Z,100
2023-05-06T23:47:21.674Z,100
2023-05-06T23:52:23.081Z,100
2023-05-06T23:57:24.456Z,100
